sensor_id;sensor_type;location;lat;lon;timestamp;pressure;altitude;pressure_sealevel;temperature;humidity
19751;BME280;4663;49.120;9.730;2023-02-19T00:01:14;98556.03;;;5.51;95.75
19751;BME280;4663;49.120;9.730;2023-02-19T00:03:46;98544.06;;;5.55;95.32
19751;BME280;4663;49.120;9.730;2023-02-19T00:06:12;98550.97;;;5.48;95.11
19751;BME280;4663;49.120;9.730;2023-02-19T00:08:37;98546.75;;;5.45;95.54
19751;BME280;4663;49.120;9.730;2023-02-19T00:11:06;98542.22;;;5.56;95.06
19751;BME280;4663;49.120;9.730;2023-02-19T00:13:36;98538.44;;;5.48;95.29
19751;BME280;4663;49.120;9.730;2023-02-19T00:16:07;98543.78;;;5.29;95.47
19751;BME280;4663;49.120;9.730;2023-02-19T00:18:33;98540.91;;;5.20;97.22
19751;BME280;4663;49.120;9.730;2023-02-19T00:20:58;98546.28;;;5.50;95.76
19751;BME280;4663;49.120;9.730;2023-02-19T00:23:24;98550.41;;;5.44;95.71
19751;BME280;4663;49.120;9.730;2023-02-19T00:25:49;98548.13;;;5.30;96.54
19751;BME280;4663;49.120;9.730;2023-02-19T00:28:14;98561.94;;;5.45;95.94
19751;BME280;4663;49.120;9.730;2023-02-19T00:30:40;98556.31;;;5.38;97.16
19751;BME280;4663;49.120;9.730;2023-02-19T00:33:05;98546.72;;;5.26;97.46
19751;BME280;4663;49.120;9.730;2023-02-19T00:35:36;98548.28;;;5.38;96.67
19751;BME280;4663;49.120;9.730;2023-02-19T00:38:01;98551.81;;;5.29;97.05
19751;BME280;4663;49.120;9.730;2023-02-19T00:40:27;98550.09;;;5.28;97.49
19751;BME280;4663;49.120;9.730;2023-02-19T00:42:52;98550.25;;;5.46;96.54
19751;BME280;4663;49.120;9.730;2023-02-19T00:45:18;98552.34;;;5.32;96.92
19751;BME280;4663;49.120;9.730;2023-02-19T00:47:43;98549.81;;;5.31;97.33
19751;BME280;4663;49.120;9.730;2023-02-19T00:50:09;98533.38;;;4.94;97.16
19751;BME280;4663;49.120;9.730;2023-02-19T00:52:34;98520.78;;;5.36;96.76
19751;BME280;4663;49.120;9.730;2023-02-19T00:55:00;98521.34;;;5.30;96.81
19751;BME280;4663;49.120;9.730;2023-02-19T00:57:25;98517.13;;;5.37;96.16
19751;BME280;4663;49.120;9.730;2023-02-19T00:59:50;98519.69;;;5.39;95.83
19751;BME280;4663;49.120;9.730;2023-02-19T01:02:16;98517.13;;;5.17;96.61
19751;BME280;4663;49.120;9.730;2023-02-19T01:04:42;98487.53;;;5.29;96.60
19751;BME280;4663;49.120;9.730;2023-02-19T01:07:07;98496.28;;;5.31;96.30
19751;BME280;4663;49.120;9.730;2023-02-19T01:09:32;98497.41;;;5.38;96.36
19751;BME280;4663;49.120;9.730;2023-02-19T01:11:58;98495.13;;;5.33;96.46
19751;BME280;4663;49.120;9.730;2023-02-19T01:14:23;98489.22;;;5.20;96.98
19751;BME280;4663;49.120;9.730;2023-02-19T01:16:49;98485.00;;;5.07;97.30
19751;BME280;4663;49.120;9.730;2023-02-19T01:19:14;98486.41;;;5.21;97.25
19751;BME280;4663;49.120;9.730;2023-02-19T01:21:39;98472.88;;;5.13;97.32
19751;BME280;4663;49.120;9.730;2023-02-19T01:24:05;98479.94;;;5.24;96.80
19751;BME280;4663;49.120;9.730;2023-02-19T01:26:32;98499.34;;;5.26;96.80
19751;BME280;4663;49.120;9.730;2023-02-19T01:28:58;98501.63;;;5.21;96.89
19751;BME280;4663;49.120;9.730;2023-02-19T01:31:24;98487.09;;;5.23;97.28
19751;BME280;4663;49.120;9.730;2023-02-19T01:33:53;98495.13;;;5.33;96.33
19751;BME280;4663;49.120;9.730;2023-02-19T01:36:18;98490.63;;;5.24;97.09
19751;BME280;4663;49.120;9.730;2023-02-19T01:38:44;98494.28;;;5.13;97.67
19751;BME280;4663;49.120;9.730;2023-02-19T01:41:13;98489.09;;;5.31;96.99
19751;BME280;4663;49.120;9.730;2023-02-19T01:46:31;98481.59;;;5.25;96.80
19751;BME280;4663;49.120;9.730;2023-02-19T01:49:01;98470.06;;;5.24;96.49
19751;BME280;4663;49.120;9.730;2023-02-19T01:51:29;98463.28;;;5.20;96.49
19751;BME280;4663;49.120;9.730;2023-02-19T01:53:59;98466.69;;;5.22;96.80
19751;BME280;4663;49.120;9.730;2023-02-19T01:56:26;98459.91;;;5.18;96.88
19751;BME280;4663;49.120;9.730;2023-02-19T01:58:52;98460.19;;;5.15;97.46
19751;BME280;4663;49.120;9.730;2023-02-19T02:01:18;98453.84;;;5.16;97.73
19751;BME280;4663;49.120;9.730;2023-02-19T02:03:46;98470.03;;;5.05;97.46
19751;BME280;4663;49.120;9.730;2023-02-19T02:06:27;98472.56;;;5.16;98.16
19751;BME280;4663;49.120;9.730;2023-02-19T02:08:57;98466.41;;;5.16;97.44
19751;BME280;4663;49.120;9.730;2023-02-19T02:11:45;98459.38;;;5.24;97.10
19751;BME280;4663;49.120;9.730;2023-02-19T02:14:12;98458.09;;;5.09;97.70
19751;BME280;4663;49.120;9.730;2023-02-19T02:31:15;98441.31;;;5.07;98.20
19751;BME280;4663;49.120;9.730;2023-02-19T02:33:46;98435.41;;;5.23;97.29
19751;BME280;4663;49.120;9.730;2023-02-19T02:36:17;98428.94;;;5.06;97.81
19751;BME280;4663;49.120;9.730;2023-02-19T02:38:46;98441.31;;;5.07;98.08
19751;BME280;4663;49.120;9.730;2023-02-19T02:41:13;98441.31;;;5.17;97.21
19751;BME280;4663;49.120;9.730;2023-02-19T02:43:39;98436.97;;;5.06;98.26
19751;BME280;4663;49.120;9.730;2023-02-19T02:46:04;98439.50;;;5.17;97.56
19751;BME280;4663;49.120;9.730;2023-02-19T02:48:53;98450.63;;;5.13;97.63
19751;BME280;4663;49.120;9.730;2023-02-19T02:51:39;98442.59;;;5.13;97.00
19751;BME280;4663;49.120;9.730;2023-02-19T02:54:22;98456.97;;;5.21;97.59
19751;BME280;4663;49.120;9.730;2023-02-19T02:57:07;98442.84;;;5.29;97.18
19751;BME280;4663;49.120;9.730;2023-02-19T02:59:36;98445.13;;;5.14;97.58
19751;BME280;4663;49.120;9.730;2023-02-19T03:02:12;98443.84;;;5.08;98.16
19751;BME280;4663;49.120;9.730;2023-02-19T03:07:48;98438.22;;;5.11;98.31
19751;BME280;4663;49.120;9.730;2023-02-19T03:10:22;98433.88;;;5.10;97.78
19751;BME280;4663;49.120;9.730;2023-02-19T03:12:51;98428.66;;;5.19;97.58
19751;BME280;4663;49.120;9.730;2023-02-19T03:15:43;98415.97;;;5.11;97.04
19751;BME280;4663;49.120;9.730;2023-02-19T03:18:47;98412.25;;;4.92;98.33
19751;BME280;4663;49.120;9.730;2023-02-19T03:21:33;98421.25;;;4.81;99.86
19751;BME280;4663;49.120;9.730;2023-02-19T03:24:02;98410.53;;;4.71;99.85
19751;BME280;4663;49.120;9.730;2023-02-19T03:26:47;98411.16;;;4.85;100.00
19751;BME280;4663;49.120;9.730;2023-02-19T03:29:20;98408.03;;;4.90;99.62
19751;BME280;4663;49.120;9.730;2023-02-19T03:31:48;98397.91;;;4.83;97.95
19751;BME280;4663;49.120;9.730;2023-02-19T03:34:21;98396.50;;;4.89;98.12
19751;BME280;4663;49.120;9.730;2023-02-19T03:37:25;98407.22;;;4.99;97.65
19751;BME280;4663;49.120;9.730;2023-02-19T03:39:52;98410.28;;;4.94;97.56
19751;BME280;4663;49.120;9.730;2023-02-19T03:48:52;98388.88;;;4.75;98.87
19751;BME280;4663;49.120;9.730;2023-02-19T03:51:40;98392.25;;;4.57;98.76
19751;BME280;4663;49.120;9.730;2023-02-19T03:54:19;98404.66;;;4.68;98.76
19751;BME280;4663;49.120;9.730;2023-02-19T03:57:22;98392.53;;;4.73;98.02
19751;BME280;4663;49.120;9.730;2023-02-19T03:59:58;98403.94;;;4.85;97.97
19751;BME280;4663;49.120;9.730;2023-02-19T04:02:28;98414.47;;;4.67;98.49
19751;BME280;4663;49.120;9.730;2023-02-19T04:05:06;98414.22;;;4.80;98.49
19751;BME280;4663;49.120;9.730;2023-02-19T04:07:36;98427.56;;;4.60;97.70
19751;BME280;4663;49.120;9.730;2023-02-19T04:10:04;98419.97;;;4.76;98.01
19751;BME280;4663;49.120;9.730;2023-02-19T04:12:32;98414.09;;;4.72;97.71
19751;BME280;4663;49.120;9.730;2023-02-19T04:15:02;98413.22;;;4.71;97.28
19751;BME280;4663;49.120;9.730;2023-02-19T04:17:34;98417.66;;;4.31;100.00
19751;BME280;4663;49.120;9.730;2023-02-19T04:20:02;98426.19;;;4.86;98.03
19751;BME280;4663;49.120;9.730;2023-02-19T04:22:30;98414.78;;;4.74;96.78
19751;BME280;4663;49.120;9.730;2023-02-19T04:24:55;98432.72;;;4.42;97.39
19751;BME280;4663;49.120;9.730;2023-02-19T04:27:20;98438.03;;;4.73;97.59
19751;BME280;4663;49.120;9.730;2023-02-19T04:29:46;98430.53;;;4.67;97.68
19751;BME280;4663;49.120;9.730;2023-02-19T04:32:12;98444.13;;;4.44;98.36
19751;BME280;4663;49.120;9.730;2023-02-19T04:34:38;98447.41;;;4.58;97.40
19751;BME280;4663;49.120;9.730;2023-02-19T04:37:04;98447.31;;;4.28;98.85
19751;BME280;4663;49.120;9.730;2023-02-19T04:39:30;98450.03;;;4.38;98.58
19751;BME280;4663;49.120;9.730;2023-02-19T04:41:56;98455.47;;;4.68;97.89
19751;BME280;4663;49.120;9.730;2023-02-19T04:44:21;98459.00;;;4.27;98.58
19751;BME280;4663;49.120;9.730;2023-02-19T04:46:47;98461.19;;;4.53;98.69
19751;BME280;4663;49.120;9.730;2023-02-19T04:49:12;98458.53;;;4.63;97.68
19751;BME280;4663;49.120;9.730;2023-02-19T04:51:38;98456.59;;;4.65;97.42
19751;BME280;4663;49.120;9.730;2023-02-19T04:54:04;98470.19;;;4.52;98.95
19751;BME280;4663;49.120;9.730;2023-02-19T04:56:29;98483.72;;;4.60;98.36
19751;BME280;4663;49.120;9.730;2023-02-19T04:58:55;98464.63;;;4.65;97.82
19751;BME280;4663;49.120;9.730;2023-02-19T05:01:20;98475.56;;;4.62;98.18
19751;BME280;4663;49.120;9.730;2023-02-19T05:03:46;98469.06;;;4.55;97.85
19751;BME280;4663;49.120;9.730;2023-02-19T05:06:12;98458.66;;;4.62;97.89
19751;BME280;4663;49.120;9.730;2023-02-19T05:08:38;98463.44;;;4.48;98.20
19751;BME280;4663;49.120;9.730;2023-02-19T05:11:06;98460.91;;;4.56;96.79
19751;BME280;4663;49.120;9.730;2023-02-19T05:13:31;98463.84;;;4.53;97.34
19751;BME280;4663;49.120;9.730;2023-02-19T05:16:04;98459.25;;;4.65;97.29
19751;BME280;4663;49.120;9.730;2023-02-19T05:18:30;98451.78;;;4.69;96.60
19751;BME280;4663;49.120;9.730;2023-02-19T05:20:57;98467.38;;;4.54;97.08
19751;BME280;4663;49.120;9.730;2023-02-19T05:23:24;98480.19;;;4.60;96.74
19751;BME280;4663;49.120;9.730;2023-02-19T05:25:50;98478.88;;;4.44;97.51
19751;BME280;4663;49.120;9.730;2023-02-19T05:28:16;98478.25;;;4.62;96.97
19751;BME280;4663;49.120;9.730;2023-02-19T05:30:47;98470.00;;;4.34;98.25
19751;BME280;4663;49.120;9.730;2023-02-19T05:33:13;98455.44;;;4.58;96.76
19751;BME280;4663;49.120;9.730;2023-02-19T05:35:43;98448.66;;;4.54;96.45
19751;BME280;4663;49.120;9.730;2023-02-19T05:38:09;98453.78;;;4.26;96.87
19751;BME280;4663;49.120;9.730;2023-02-19T05:40:35;98470.00;;;4.34;97.47
19751;BME280;4663;49.120;9.730;2023-02-19T05:43:01;98480.63;;;4.55;96.50
19751;BME280;4663;49.120;9.730;2023-02-19T05:45:27;98483.34;;;4.65;95.78
19751;BME280;4663;49.120;9.730;2023-02-19T05:47:52;98473.09;;;4.39;96.83
19751;BME280;4663;49.120;9.730;2023-02-19T05:50:18;98478.47;;;4.49;97.17
19751;BME280;4663;49.120;9.730;2023-02-19T05:52:43;98488.72;;;4.34;96.75
19751;BME280;4663;49.120;9.730;2023-02-19T05:55:09;98486.38;;;4.51;96.95
19751;BME280;4663;49.120;9.730;2023-02-19T05:57:46;98502.16;;;4.54;97.04
19751;BME280;4663;49.120;9.730;2023-02-19T06:00:13;98498.59;;;4.43;97.26
19751;BME280;4663;49.120;9.730;2023-02-19T06:02:39;98500.88;;;4.48;97.40
19751;BME280;4663;49.120;9.730;2023-02-19T06:05:05;98503.38;;;4.40;96.99
19751;BME280;4663;49.120;9.730;2023-02-19T06:07:31;98508.66;;;4.30;97.27
19751;BME280;4663;49.120;9.730;2023-02-19T06:09:57;98496.72;;;4.34;96.91
19751;BME280;4663;49.120;9.730;2023-02-19T06:12:22;98506.16;;;4.38;96.78
19751;BME280;4663;49.120;9.730;2023-02-19T06:14:48;98499.41;;;4.34;97.32
19751;BME280;4663;49.120;9.730;2023-02-19T06:17:13;98503.75;;;4.35;97.34
19751;BME280;4663;49.120;9.730;2023-02-19T06:19:39;98496.19;;;4.40;97.24
19751;BME280;4663;49.120;9.730;2023-02-19T06:22:04;98496.47;;;4.37;97.56
19751;BME280;4663;49.120;9.730;2023-02-19T06:24:30;98494.63;;;4.38;96.99
19751;BME280;4663;49.120;9.730;2023-02-19T06:26:55;98488.97;;;4.31;97.21
19751;BME280;4663;49.120;9.730;2023-02-19T06:29:20;98495.22;;;4.41;97.00
19751;BME280;4663;49.120;9.730;2023-02-19T06:31:46;98501.34;;;4.32;96.82
19751;BME280;4663;49.120;9.730;2023-02-19T06:34:11;98499.09;;;4.27;97.02
19751;BME280;4663;49.120;9.730;2023-02-19T06:36:36;98493.53;;;4.50;96.47
19751;BME280;4663;49.120;9.730;2023-02-19T06:39:03;98499.44;;;4.44;96.62
19751;BME280;4663;49.120;9.730;2023-02-19T06:41:29;98508.72;;;4.40;96.76
19751;BME280;4663;49.120;9.730;2023-02-19T06:43:58;98507.56;;;4.32;96.75
19751;BME280;4663;49.120;9.730;2023-02-19T06:46:24;98504.66;;;4.45;95.68
19751;BME280;4663;49.120;9.730;2023-02-19T06:48:50;98508.75;;;4.50;96.38
19751;BME280;4663;49.120;9.730;2023-02-19T06:51:17;98518.19;;;4.23;96.43
19751;BME280;4663;49.120;9.730;2023-02-19T06:53:44;98511.59;;;4.27;97.58
19751;BME280;4663;49.120;9.730;2023-02-19T06:56:39;98518.34;;;4.52;95.62
19751;BME280;4663;49.120;9.730;2023-02-19T06:59:11;98526.22;;;4.54;95.88
19751;BME280;4663;49.120;9.730;2023-02-19T07:01:37;98525.66;;;4.60;95.67
19751;BME280;4663;49.120;9.730;2023-02-19T07:04:03;98529.50;;;4.67;94.77
19751;BME280;4663;49.120;9.730;2023-02-19T07:06:29;98529.84;;;4.53;95.55
19751;BME280;4663;49.120;9.730;2023-02-19T07:08:56;98537.09;;;4.62;95.56
19751;BME280;4663;49.120;9.730;2023-02-19T07:11:22;98531.31;;;4.57;96.59
19751;BME280;4663;49.120;9.730;2023-02-19T07:13:56;98531.75;;;4.62;96.20
19751;BME280;4663;49.120;9.730;2023-02-19T07:16:22;98540.56;;;4.21;96.67
19751;BME280;4663;49.120;9.730;2023-02-19T07:18:48;98539.84;;;4.51;96.87
19751;BME280;4663;49.120;9.730;2023-02-19T07:21:14;98533.53;;;4.52;96.76
19751;BME280;4663;49.120;9.730;2023-02-19T07:23:41;98533.53;;;4.52;96.39
19751;BME280;4663;49.120;9.730;2023-02-19T07:26:08;98537.09;;;4.31;97.29
19751;BME280;4663;49.120;9.730;2023-02-19T07:28:34;98537.44;;;4.47;96.19
19751;BME280;4663;49.120;9.730;2023-02-19T07:31:00;98543.16;;;4.74;96.24
19751;BME280;4663;49.120;9.730;2023-02-19T07:33:26;98549.31;;;4.55;97.03
19751;BME280;4663;49.120;9.730;2023-02-19T07:35:52;98547.97;;;4.70;95.70
19751;BME280;4663;49.120;9.730;2023-02-19T07:38:21;98557.56;;;4.83;95.06
19751;BME280;4663;49.120;9.730;2023-02-19T07:43:16;98560.72;;;4.57;94.82
19751;BME280;4663;49.120;9.730;2023-02-19T07:45:41;98560.56;;;4.58;96.30
19751;BME280;4663;49.120;9.730;2023-02-19T07:48:07;98570.16;;;4.61;96.20
19751;BME280;4663;49.120;9.730;2023-02-19T07:50:32;98564.31;;;4.77;96.50
19751;BME280;4663;49.120;9.730;2023-02-19T07:52:57;98558.06;;;4.57;96.24
19751;BME280;4663;49.120;9.730;2023-02-19T07:55:24;98578.81;;;4.75;96.98
19751;BME280;4663;49.120;9.730;2023-02-19T07:57:49;98586.81;;;4.75;95.91
19751;BME280;4663;49.120;9.730;2023-02-19T08:00:14;98579.41;;;4.88;92.87
19751;BME280;4663;49.120;9.730;2023-02-19T08:02:40;98580.59;;;5.05;93.36
19751;BME280;4663;49.120;9.730;2023-02-19T08:05:24;98576.56;;;5.11;92.44
19751;BME280;4663;49.120;9.730;2023-02-19T08:07:50;98579.41;;;4.88;92.39
19751;BME280;4663;49.120;9.730;2023-02-19T08:10:15;98590.72;;;5.02;93.29
19751;BME280;4663;49.120;9.730;2023-02-19T08:13:00;98598.38;;;5.16;93.05
19751;BME280;4663;49.120;9.730;2023-02-19T08:18:29;98618.88;;;5.27;93.06
19751;BME280;4663;49.120;9.730;2023-02-19T08:20:56;98623.38;;;5.27;95.01
19751;BME280;4663;49.120;9.730;2023-02-19T08:23:22;98616.16;;;5.17;93.77
19751;BME280;4663;49.120;9.730;2023-02-19T08:25:49;98630.41;;;5.28;94.24
19751;BME280;4663;49.120;9.730;2023-02-19T08:28:15;98616.88;;;5.19;93.15
19751;BME280;4663;49.120;9.730;2023-02-19T08:30:42;98635.91;;;5.36;93.95
19751;BME280;4663;49.120;9.730;2023-02-19T08:33:15;98638.47;;;5.47;92.19
19751;BME280;4663;49.120;9.730;2023-02-19T08:35:41;98646.69;;;5.66;92.26
19751;BME280;4663;49.120;9.730;2023-02-19T08:38:08;98651.91;;;5.57;92.91
19751;BME280;4663;49.120;9.730;2023-02-19T08:40:36;98655.28;;;5.49;90.10
19751;BME280;4663;49.120;9.730;2023-02-19T08:43:03;98662.63;;;5.67;92.18
19751;BME280;4663;49.120;9.730;2023-02-19T08:45:29;98662.50;;;5.79;92.32
19751;BME280;4663;49.120;9.730;2023-02-19T08:47:55;98665.19;;;5.79;91.23
19751;BME280;4663;49.120;9.730;2023-02-19T08:50:20;98656.97;;;5.50;89.50
19751;BME280;4663;49.120;9.730;2023-02-19T08:52:46;98666.19;;;5.78;90.54
19751;BME280;4663;49.120;9.730;2023-02-19T08:55:12;98653.19;;;5.83;89.56
19751;BME280;4663;49.120;9.730;2023-02-19T08:57:37;98660.22;;;5.74;90.73
19751;BME280;4663;49.120;9.730;2023-02-19T09:00:04;98667.44;;;5.73;90.31
19751;BME280;4663;49.120;9.730;2023-02-19T09:02:29;98666.16;;;5.58;89.99
19751;BME280;4663;49.120;9.730;2023-02-19T09:04:55;98676.91;;;5.27;89.86
19751;BME280;4663;49.120;9.730;2023-02-19T09:07:20;98682.94;;;5.70;90.92
19751;BME280;4663;49.120;9.730;2023-02-19T09:09:47;98676.72;;;5.49;89.45
19751;BME280;4663;49.120;9.730;2023-02-19T09:12:13;98686.88;;;5.66;92.28
19751;BME280;4663;49.120;9.730;2023-02-19T09:14:39;98686.78;;;5.36;90.40
19751;BME280;4663;49.120;9.730;2023-02-19T09:17:06;98694.22;;;5.63;91.12
19751;BME280;4663;49.120;9.730;2023-02-19T09:19:32;98701.50;;;5.52;91.03
19751;BME280;4663;49.120;9.730;2023-02-19T09:21:57;98708.56;;;5.53;89.50
19751;BME280;4663;49.120;9.730;2023-02-19T09:24:23;98709.06;;;5.78;88.98
19751;BME280;4663;49.120;9.730;2023-02-19T09:26:51;98715.66;;;5.73;90.57
19751;BME280;4663;49.120;9.730;2023-02-19T09:29:17;98726.13;;;5.76;92.30
19751;BME280;4663;49.120;9.730;2023-02-19T09:31:42;98726.88;;;5.47;88.78
19751;BME280;4663;49.120;9.730;2023-02-19T09:34:08;98720.16;;;5.63;86.43
19751;BME280;4663;49.120;9.730;2023-02-19T09:36:33;98727.84;;;5.46;87.13
19751;BME280;4663;49.120;9.730;2023-02-19T09:38:59;98738.75;;;5.65;91.15
19751;BME280;4663;49.120;9.730;2023-02-19T09:41:30;98737.97;;;5.84;90.67
19751;BME280;4663;49.120;9.730;2023-02-19T09:43:57;98738.53;;;5.87;88.87
19751;BME280;4663;49.120;9.730;2023-02-19T09:46:28;98736.28;;;5.93;88.72
19751;BME280;4663;49.120;9.730;2023-02-19T09:49:06;98745.06;;;5.95;89.13
19751;BME280;4663;49.120;9.730;2023-02-19T09:51:36;98735.16;;;5.95;85.82
19751;BME280;4663;49.120;9.730;2023-02-19T09:54:05;98749.72;;;6.02;89.32
19751;BME280;4663;49.120;9.730;2023-02-19T09:56:32;98745.91;;;6.05;87.55
19751;BME280;4663;49.120;9.730;2023-02-19T09:58:59;98746.75;;;6.06;88.33
19751;BME280;4663;49.120;9.730;2023-02-19T10:01:27;98741.91;;;5.80;85.89
19751;BME280;4663;49.120;9.730;2023-02-19T10:03:56;98756.03;;;5.82;89.39
19751;BME280;4663;49.120;9.730;2023-02-19T10:06:24;98743.31;;;5.84;89.45
19751;BME280;4663;49.120;9.730;2023-02-19T10:08:59;98742.53;;;6.03;87.56
19751;BME280;4663;49.120;9.730;2023-02-19T10:11:33;98747.84;;;5.83;90.81
19751;BME280;4663;49.120;9.730;2023-02-19T10:14:10;98742.78;;;5.90;90.88
19751;BME280;4663;49.120;9.730;2023-02-19T10:16:42;98755.31;;;5.89;91.44
19751;BME280;4663;49.120;9.730;2023-02-19T10:19:10;98746.34;;;6.00;89.86
19751;BME280;4663;49.120;9.730;2023-02-19T10:21:36;98753.53;;;6.00;90.49
19751;BME280;4663;49.120;9.730;2023-02-19T10:24:03;98731.03;;;5.71;89.75
19751;BME280;4663;49.120;9.730;2023-02-19T10:26:29;98755.00;;;5.73;90.66
19751;BME280;4663;49.120;9.730;2023-02-19T10:29:02;98755.34;;;5.99;91.63
19751;BME280;4663;49.120;9.730;2023-02-19T10:31:30;98749.50;;;5.74;92.81
19751;BME280;4663;49.120;9.730;2023-02-19T10:33:57;98755.06;;;5.52;89.93
19751;BME280;4663;49.120;9.730;2023-02-19T10:36:28;98762.09;;;5.94;91.51
19751;BME280;4663;49.120;9.730;2023-02-19T10:38:55;98769.63;;;6.10;92.25
19751;BME280;4663;49.120;9.730;2023-02-19T10:41:23;98779.78;;;5.55;93.33
19751;BME280;4663;49.120;9.730;2023-02-19T10:46:24;98779.69;;;5.67;93.21
19751;BME280;4663;49.120;9.730;2023-02-19T10:49:26;98775.50;;;5.94;93.31
19751;BME280;4663;49.120;9.730;2023-02-19T10:51:56;98781.19;;;6.00;93.42
19751;BME280;4663;49.120;9.730;2023-02-19T10:54:28;98785.94;;;5.87;91.71
19751;BME280;4663;49.120;9.730;2023-02-19T10:59:51;98790.66;;;5.63;91.12
19751;BME280;4663;49.120;9.730;2023-02-19T11:02:19;98793.22;;;5.65;89.67
19751;BME280;4663;49.120;9.730;2023-02-19T11:05:16;98792.16;;;5.97;90.88
19751;BME280;4663;49.120;9.730;2023-02-19T11:07:54;98801.03;;;5.98;91.77
19751;BME280;4663;49.120;9.730;2023-02-19T11:10:38;98794.69;;;5.89;90.56
19751;BME280;4663;49.120;9.730;2023-02-19T11:13:06;98793.13;;;5.86;89.83
19751;BME280;4663;49.120;9.730;2023-02-19T11:15:37;98799.91;;;5.91;90.27
19751;BME280;4663;49.120;9.730;2023-02-19T11:18:14;98796.25;;;5.92;89.11
19751;BME280;4663;49.120;9.730;2023-02-19T11:20:52;98792.66;;;5.71;90.63
19751;BME280;4663;49.120;9.730;2023-02-19T11:25:52;98789.34;;;5.99;91.51
19751;BME280;4663;49.120;9.730;2023-02-19T11:30:52;98783.78;;;6.32;92.49
19751;BME280;4663;49.120;9.730;2023-02-19T11:33:19;98785.53;;;6.01;90.97
19751;BME280;4663;49.120;9.730;2023-02-19T11:35:49;98782.84;;;5.92;91.41
19751;BME280;4663;49.120;9.730;2023-02-19T11:38:17;98789.13;;;6.22;92.72
19751;BME280;4663;49.120;9.730;2023-02-19T11:43:27;98778.59;;;6.60;91.70
19751;BME280;4663;49.120;9.730;2023-02-19T11:46:08;98777.31;;;6.54;90.21
19751;BME280;4663;49.120;9.730;2023-02-19T11:48:56;98779.22;;;6.22;91.08
19751;BME280;4663;49.120;9.730;2023-02-19T11:56:33;98805.06;;;7.02;91.35
19751;BME280;4663;49.120;9.730;2023-02-19T11:59:04;98799.22;;;7.27;89.59
19751;BME280;4663;49.120;9.730;2023-02-19T12:02:00;98806.22;;;8.14;91.13
19751;BME280;4663;49.120;9.730;2023-02-19T12:12:54;98794.19;;;7.90;86.62
19751;BME280;4663;49.120;9.730;2023-02-19T12:26:03;98789.31;;;7.75;83.12
19751;BME280;4663;49.120;9.730;2023-02-19T12:39:49;98776.56;;;8.42;81.71
19751;BME280;4663;49.120;9.730;2023-02-19T12:47:53;98781.31;;;7.55;80.41
19751;BME280;4663;49.120;9.730;2023-02-19T12:50:24;98783.22;;;7.73;79.64
19751;BME280;4663;49.120;9.730;2023-02-19T12:53:00;98780.38;;;7.85;79.19
19751;BME280;4663;49.120;9.730;2023-02-19T12:55:36;98783.66;;;7.97;80.39
19751;BME280;4663;49.120;9.730;2023-02-19T12:58:04;98771.84;;;7.89;79.06
19751;BME280;4663;49.120;9.730;2023-02-19T13:00:43;98774.75;;;8.24;80.28
19751;BME280;4663;49.120;9.730;2023-02-19T13:06:08;98769.22;;;8.44;80.23
19751;BME280;4663;49.120;9.730;2023-02-19T13:08:48;98778.88;;;8.37;78.54
19751;BME280;4663;49.120;9.730;2023-02-19T13:11:19;98804.69;;;8.11;82.39
19751;BME280;4663;49.120;9.730;2023-02-19T13:13:48;98772.97;;;8.33;78.71
19751;BME280;4663;49.120;9.730;2023-02-19T13:16:17;98772.84;;;8.53;78.26
19751;BME280;4663;49.120;9.730;2023-02-19T13:18:55;98773.88;;;8.60;79.93
19751;BME280;4663;49.120;9.730;2023-02-19T13:21:25;98776.34;;;8.53;78.91
19751;BME280;4663;49.120;9.730;2023-02-19T13:24:25;98767.75;;;8.31;77.22
19751;BME280;4663;49.120;9.730;2023-02-19T13:37:25;98743.19;;;8.71;77.04
19751;BME280;4663;49.120;9.730;2023-02-19T13:39:52;98745.66;;;8.46;76.31
19751;BME280;4663;49.120;9.730;2023-02-19T13:42:27;98752.44;;;8.50;77.49
19751;BME280;4663;49.120;9.730;2023-02-19T13:44:55;98740.94;;;8.84;77.34
19751;BME280;4663;49.120;9.730;2023-02-19T13:50:26;98722.78;;;8.87;76.23
19751;BME280;4663;49.120;9.730;2023-02-19T13:52:57;98721.53;;;8.99;75.67
19751;BME280;4663;49.120;9.730;2023-02-19T14:01:01;98722.75;;;8.60;75.32
19751;BME280;4663;49.120;9.730;2023-02-19T14:03:38;98731.06;;;8.67;77.53
19751;BME280;4663;49.120;9.730;2023-02-19T14:06:06;98730.72;;;8.70;78.02
19751;BME280;4663;49.120;9.730;2023-02-19T14:11:09;98742.22;;;8.54;77.04
19751;BME280;4663;49.120;9.730;2023-02-19T14:18:54;98766.44;;;8.36;77.35
19751;BME280;4663;49.120;9.730;2023-02-19T14:21:37;98773.97;;;8.50;77.76
19751;BME280;4663;49.120;9.730;2023-02-19T14:24:04;98776.50;;;8.33;75.96
19751;BME280;4663;49.120;9.730;2023-02-19T14:26:34;98791.19;;;8.21;77.87
19751;BME280;4663;49.120;9.730;2023-02-19T14:29:00;98794.47;;;7.87;79.19
19751;BME280;4663;49.120;9.730;2023-02-19T14:31:44;98782.56;;;7.99;77.66
19751;BME280;4663;49.120;9.730;2023-02-19T14:34:19;98785.63;;;7.76;76.54
19751;BME280;4663;49.120;9.730;2023-02-19T14:36:58;98805.56;;;7.74;79.16
19751;BME280;4663;49.120;9.730;2023-02-19T14:39:30;98807.34;;;7.55;79.59
19751;BME280;4663;49.120;9.730;2023-02-19T14:42:26;98824.63;;;7.42;82.27
19751;BME280;4663;49.120;9.730;2023-02-19T14:45:00;98824.41;;;7.26;83.55
19751;BME280;4663;49.120;9.730;2023-02-19T14:47:28;98823.56;;;7.25;84.94
19751;BME280;4663;49.120;9.730;2023-02-19T14:50:00;98826.94;;;7.27;86.04
19751;BME280;4663;49.120;9.730;2023-02-19T14:52:34;98819.16;;;7.34;87.35
19751;BME280;4663;49.120;9.730;2023-02-19T14:57:54;98822.91;;;7.03;88.44
19751;BME280;4663;49.120;9.730;2023-02-19T15:02:46;98831.81;;;6.74;90.83
19751;BME280;4663;49.120;9.730;2023-02-19T15:05:23;98828.69;;;6.89;90.12
19751;BME280;4663;49.120;9.730;2023-02-19T15:07:49;98836.44;;;7.12;87.56
19751;BME280;4663;49.120;9.730;2023-02-19T15:10:15;98840.97;;;6.91;88.97
19751;BME280;4663;49.120;9.730;2023-02-19T15:13:09;98841.97;;;7.00;89.78
19751;BME280;4663;49.120;9.730;2023-02-19T15:15:43;98853.25;;;7.14;90.13
19751;BME280;4663;49.120;9.730;2023-02-19T15:18:16;98840.84;;;6.93;90.20
19751;BME280;4663;49.120;9.730;2023-02-19T15:20:43;98847.75;;;6.86;91.21
19751;BME280;4663;49.120;9.730;2023-02-19T15:23:17;98836.44;;;7.12;90.35
19751;BME280;4663;49.120;9.730;2023-02-19T15:25:45;98838.41;;;7.10;89.95
19751;BME280;4663;49.120;9.730;2023-02-19T15:30:44;98826.41;;;7.14;88.66
19751;BME280;4663;49.120;9.730;2023-02-19T15:33:15;98828.97;;;6.96;90.16
19751;BME280;4663;49.120;9.730;2023-02-19T15:35:41;98826.44;;;6.74;89.46
19751;BME280;4663;49.120;9.730;2023-02-19T15:38:08;98819.78;;;6.59;90.17
19751;BME280;4663;49.120;9.730;2023-02-19T15:40:36;98821.34;;;6.61;89.36